createdAt,value
2018-04-12T03:27:01.400Z,0.1
2018-04-12T03:29:01.228Z,0.2
2018-04-12T03:30:01.102Z,0.3
2018-04-12T03:32:01.327Z,0.4
2018-04-12T03:33:01.077Z,0.5
2018-04-12T03:35:01.131Z,0.7
2018-04-12T03:36:01.108Z,0.8
2018-04-12T03:37:01.309Z,0.9
2018-04-12T03:38:01.073Z,1.1
2018-04-12T03:39:01.075Z,1.3
2018-04-12T03:40:01.069Z,1.5
2018-04-12T03:41:01.072Z,1.7
2018-04-12T03:42:01.250Z,2.0
2018-04-12T03:43:01.107Z,2.3
2018-04-12T03:44:01.077Z,2.6
2018-04-12T03:45:01.102Z,3.1
2018-04-12T03:46:01.109Z,3.6
2018-04-12T03:47:01.273Z,4.2
2018-04-12T03:48:01.105Z,4.9
2018-04-12T03:49:01.150Z,5.8
2018-04-12T03:50:01.168Z,6.8
2018-04-12T03:51:01.074Z,8.0
2018-04-12T03:52:01.254Z,9.4
2018-04-12T03:53:01.168Z,11.1
2018-04-12T03:54:01.077Z,12.9
2018-04-12T03:55:01.134Z,15.2
2018-04-12T03:56:01.110Z,17.8
2018-04-12T03:57:01.224Z,20.9
2018-04-12T03:58:01.073Z,24.5
2018-04-12T03:59:01.108Z,28.7
2018-04-12T04:00:01.135Z,33.7
2018-04-12T04:01:01.085Z,39.5
2018-04-12T04:02:01.250Z,46.3
2018-04-12T04:04:01.092Z,55.7
2018-04-12T04:05:01.083Z,66.7
2018-04-12T04:06:01.061Z,79.4
2018-04-12T04:07:01.108Z,94.1
2018-04-12T04:08:01.206Z,111.1
2018-04-12T04:09:01.064Z,130.7
2018-04-12T04:10:01.081Z,153.1
2018-04-12T04:11:01.097Z,178.6
2018-04-12T04:12:01.059Z,207.7
2018-04-12T04:13:01.205Z,240.5
2018-04-12T04:14:01.094Z,277.7
2018-04-12T04:15:01.114Z,319.6
2018-04-12T04:16:01.088Z,366.6
2018-04-12T04:17:01.069Z,419.2
2018-04-12T04:18:01.206Z,477.7
2018-04-12T04:19:01.094Z,541.2
2018-04-12T04:20:01.128Z,611.3
2018-04-12T04:21:01.133Z,688.4
2018-04-12T04:22:01.090Z,773.0
2018-04-12T04:23:01.205Z,865.5
2018-04-12T04:24:01.060Z,966.3
2018-04-12T04:25:01.091Z,1075.7
2018-04-12T04:26:01.107Z,1194.1
2018-04-12T04:27:01.070Z,1321.7
2018-04-12T04:28:01.222Z,1459.0
2018-04-12T04:29:01.107Z,1606.3
2018-04-12T04:30:01.102Z,1763.9
2018-04-12T04:31:01.103Z,1931.8
2018-04-12T04:32:01.107Z,2110.4
2018-04-12T04:33:01.222Z,2300.2
2018-04-12T04:34:01.120Z,2501.5
2018-04-12T04:35:01.116Z,2714.2
2018-04-12T04:36:01.139Z,2938.2
2018-04-12T04:37:01.108Z,3173.1
2018-04-12T04:38:01.266Z,3418.5
2018-04-12T04:39:01.109Z,3674.4
2018-04-12T04:41:01.081Z,3963.7
2018-04-12T04:42:01.061Z,4263.5
2018-04-12T04:43:01.240Z,4573.5
2018-04-12T04:44:01.093Z,4893.1
2018-04-12T04:45:01.093Z,5221.9
2018-04-12T04:46:01.102Z,5559.7
2018-04-12T04:47:01.095Z,5906.9
2018-04-12T04:48:01.232Z,6263.5
2018-04-12T04:49:01.094Z,6629.1
2018-04-12T04:50:01.058Z,7004.1
2018-04-12T04:51:01.131Z,7388.3
2018-04-12T04:52:01.056Z,7780.5
2018-04-12T04:53:01.238Z,8181.3
2018-04-12T04:54:01.064Z,8592.3
2018-04-12T04:55:01.060Z,9015.3
2018-04-12T04:56:01.116Z,9429.1
2018-04-12T04:57:01.097Z,9857.2
2018-04-12T04:58:01.332Z,10299.7
2018-04-12T04:59:01.066Z,10756.7
2018-04-12T05:00:01.062Z,11226.9
2018-04-12T05:01:01.102Z,11708.0
2018-04-12T05:02:01.096Z,12198.4
2018-04-12T05:03:01.504Z,12698.5
2018-04-12T05:04:01.102Z,13207.9
2018-04-12T05:05:01.105Z,13726.7
2018-04-12T05:06:01.097Z,14256.3
2018-04-12T05:07:01.101Z,14798.5
2018-04-12T05:08:01.269Z,15360.7
2018-04-12T05:09:01.070Z,15934.1
2018-04-12T05:10:01.096Z,16523.3
2018-04-12T05:11:01.067Z,17124.7
2018-04-12T05:12:01.129Z,17736.7
2018-04-12T05:13:01.221Z,18332.4
2018-04-12T05:14:01.068Z,18931.7
2018-04-12T05:15:01.077Z,19556.1
2018-04-12T05:16:01.078Z,20208.1
2018-04-12T05:17:01.105Z,20875.5
2018-04-12T05:18:01.249Z,21530.4
2018-04-12T05:19:01.071Z,22173.7
2018-04-12T05:20:01.098Z,22811.0
2018-04-12T05:21:01.098Z,23457.7
2018-04-12T05:22:01.089Z,24089.3
2018-04-12T05:23:01.245Z,24703.9
2018-04-12T05:24:01.069Z,25318.9
2018-04-12T05:25:01.076Z,25937.5
2018-04-12T05:26:01.097Z,26567.8
2018-04-12T05:27:01.069Z,27203.7
2018-04-12T05:28:01.252Z,27866.8
2018-04-12T05:29:01.070Z,28534.3
2018-04-12T05:30:01.070Z,29191.9
2018-04-12T05:31:01.116Z,29848.9
2018-04-12T05:32:01.070Z,30501.1
2018-04-12T05:33:01.216Z,31172.1
2018-04-12T05:34:01.077Z,31870.4
2018-04-12T05:35:01.070Z,32562.5
2018-04-12T05:36:01.135Z,33237.7
2018-04-12T05:37:01.074Z,33924.0
2018-04-12T05:38:01.252Z,34630.9
2018-04-12T05:39:01.070Z,35348.6
2018-04-12T05:40:01.069Z,36063.3
2018-04-12T05:41:01.152Z,36758.5
2018-04-12T05:42:01.075Z,37451.0
2018-04-12T05:43:01.251Z,38162.1
2018-04-12T05:44:01.076Z,38909.6
2018-04-12T05:45:01.082Z,39689.0
2018-04-12T05:46:01.105Z,40461.5
2018-04-12T05:47:01.103Z,41244.9
2018-04-12T05:48:01.255Z,42060.5
2018-04-12T05:49:01.103Z,42872.5
2018-04-12T05:50:01.072Z,43722.5
2018-04-12T05:51:01.141Z,44570.9
2018-04-12T05:52:01.081Z,45472.3
2018-04-12T05:53:01.217Z,46386.4
2018-04-12T05:54:01.107Z,47197.4
2018-04-12T05:55:01.083Z,47996.3
2018-04-12T05:56:01.145Z,48826.9
2018-04-12T05:57:01.107Z,49666.9
2018-04-12T05:58:01.261Z,50462.3
2018-04-12T05:59:01.077Z,51207.3
2018-04-12T06:00:01.109Z,51924.2
2018-04-12T06:01:01.111Z,52667.3
2018-04-12T06:02:01.127Z,53418.2
2018-04-12T06:03:01.216Z,54196.5
2018-04-12T06:05:01.094Z,55132.1
2018-04-12T06:06:01.059Z,56102.8
2018-04-12T06:07:01.153Z,57092.9
2018-04-12T06:08:01.062Z,57993.4
2018-04-12T06:09:01.242Z,58828.1
2018-04-12T06:10:01.095Z,59712.6
2018-04-12T06:11:01.098Z,60559.2
2018-04-12T06:12:01.104Z,61333.8
2018-04-12T06:13:01.059Z,62048.1
2018-04-12T06:14:01.241Z,62739.9
2018-04-12T06:15:01.063Z,63399.1
2018-04-12T06:16:01.101Z,64002.3
2018-04-12T06:17:01.131Z,64523.8
2018-04-12T06:18:01.063Z,64980.9
2018-04-12T06:19:01.247Z,65335.8
2018-04-12T06:20:01.059Z,65484.8
2018-04-12T06:21:01.065Z,65535.0
2018-04-12T06:30:01.400Z,65535.0
2018-04-12T06:45:01.321Z,65535.0
2018-04-12T07:00:01.367Z,65535.0
2018-04-12T07:15:01.257Z,65535.0
2018-04-12T07:30:01.382Z,65535.0
2018-04-12T07:45:01.268Z,65535.0
2018-04-12T08:00:01.391Z,65535.0
2018-04-12T08:15:01.446Z,65535.0
2018-04-12T08:30:01.347Z,65535.0
2018-04-12T08:45:01.390Z,65535.0
2018-04-12T09:00:01.407Z,65535.0
2018-04-12T09:15:01.289Z,65535.0
2018-04-12T09:30:01.340Z,65535.0
2018-04-12T09:45:01.448Z,65535.0
2018-04-12T10:00:01.394Z,65535.0
2018-04-12T10:15:01.271Z,65535.0
2018-04-12T10:30:01.346Z,65535.0
2018-04-12T10:45:01.276Z,65535.0
2018-04-12T11:00:01.369Z,65535.0
2018-04-12T11:15:01.288Z,65535.0
2018-04-12T11:30:01.410Z,65535.0
2018-04-12T11:45:01.394Z,65535.0
2018-04-12T12:00:01.396Z,65535.0
2018-04-12T12:15:01.370Z,65535.0
2018-04-12T12:30:01.333Z,65535.0
2018-04-12T12:45:01.358Z,65535.0
2018-04-12T13:00:01.392Z,65535.0
2018-04-12T13:15:01.247Z,65535.0
2018-04-12T13:30:01.332Z,65535.0
2018-04-12T13:45:01.100Z,65535.0
2018-04-12T14:00:01.169Z,65535.0
2018-04-12T14:15:01.125Z,65535.0
2018-04-12T14:30:02.121Z,65535.0
2018-04-12T14:45:01.365Z,65535.0
2018-04-12T15:00:01.201Z,65535.0
2018-04-12T15:15:01.121Z,65535.0
2018-04-12T15:30:01.094Z,65535.0
2018-04-12T15:45:01.065Z,65535.0
2018-04-12T16:00:01.237Z,65535.0
2018-04-12T16:15:01.136Z,65535.0
2018-04-12T16:23:02.390Z,65500.7
2018-04-12T16:24:01.096Z,65437.5
2018-04-12T16:25:01.120Z,65336.2
2018-04-12T16:26:01.060Z,65181.1
2018-04-12T16:27:01.094Z,64911.1
2018-04-12T16:28:01.337Z,64558.7
2018-04-12T16:29:01.063Z,64225.3
2018-04-12T16:30:01.100Z,63950.2
2018-04-12T16:31:01.061Z,63742.5
2018-04-12T16:32:01.073Z,63571.4
2018-04-12T16:33:01.241Z,63390.7
2018-04-12T16:34:01.064Z,63164.0
2018-04-12T16:35:01.066Z,62878.1
2018-04-12T16:36:01.094Z,62412.6
2018-04-12T16:37:01.091Z,61701.7
2018-04-12T16:38:01.244Z,60944.6
2018-04-12T16:39:01.118Z,60346.0
2018-04-12T16:40:01.094Z,60048.1
2018-04-12T16:41:01.064Z,60046.1
2018-04-12T16:42:01.065Z,60291.2
2018-04-12T16:43:01.271Z,60643.6
2018-04-12T16:44:01.099Z,60977.1
2018-04-12T16:45:01.064Z,61252.1
2018-04-12T16:46:01.070Z,61459.8
2018-04-12T16:47:01.106Z,61630.4
2018-04-12T16:48:01.310Z,61645.8
2018-04-12T16:49:01.067Z,61545.5
2018-04-12T16:50:01.061Z,61402.7
2018-04-12T16:51:01.154Z,61350.5
2018-04-12T16:52:01.095Z,61501.1
2018-04-12T16:53:01.217Z,61631.1
2018-04-12T16:54:01.066Z,61418.3
2018-04-12T16:55:01.066Z,60682.0
2018-04-12T16:56:01.088Z,59445.3
2018-04-12T16:57:01.094Z,57900.7
2018-04-12T16:58:01.238Z,56222.3
2018-04-12T16:59:01.092Z,54404.8
2018-04-12T17:00:01.076Z,52445.7
2018-04-12T17:01:01.070Z,50401.9
2018-04-12T17:02:01.108Z,48299.0
2018-04-12T17:03:01.222Z,46270.5
2018-04-12T17:04:01.127Z,44321.3
2018-04-12T17:05:01.069Z,42387.3
2018-04-12T17:06:01.069Z,40493.9
2018-04-12T17:07:01.102Z,38589.2
2018-04-12T17:08:01.254Z,36686.5
2018-04-12T17:09:01.105Z,34912.3
2018-04-12T17:10:01.069Z,33316.0
2018-04-12T17:11:01.112Z,31913.5
2018-04-12T17:12:01.104Z,30629.9
2018-04-12T17:13:01.249Z,29409.2
2018-04-12T17:14:01.094Z,28288.5
2018-04-12T17:15:01.104Z,27294.2
2018-04-12T17:16:01.102Z,26382.1
2018-04-12T17:17:01.137Z,25535.3
2018-04-12T17:18:01.219Z,24799.4
2018-04-12T17:19:01.170Z,24179.5
2018-04-12T17:20:01.104Z,23677.3
2018-04-12T17:21:01.106Z,23250.9
2018-04-12T17:22:01.099Z,22891.3
2018-04-12T17:23:01.250Z,22612.4
2018-04-12T17:24:01.101Z,22400.4
2018-04-12T17:25:01.073Z,22260.1
2018-04-12T17:26:01.072Z,22173.2
2018-04-12T17:27:01.134Z,22130.1
2018-04-12T17:28:01.220Z,22108.4
2018-04-12T17:29:01.078Z,22087.7
2018-04-12T17:30:01.106Z,22031.4
2018-04-12T17:31:01.097Z,21910.4
2018-04-12T17:32:01.096Z,21718.9
2018-04-12T17:33:01.215Z,21456.6
2018-04-12T17:34:01.108Z,21122.1
2018-04-12T17:35:01.113Z,20730.1
2018-04-12T17:36:01.108Z,20292.4
2018-04-12T17:38:01.269Z,19818.1
2018-04-12T17:39:01.092Z,19352.0
2018-04-12T17:40:01.057Z,18894.5
2018-04-12T17:41:01.095Z,18437.7
2018-04-12T17:42:01.123Z,17981.1
2018-04-12T17:43:01.208Z,17523.1
2018-04-12T17:44:01.062Z,17072.6
2018-04-12T17:45:01.099Z,16638.1
2018-04-12T17:46:01.067Z,16227.5
2018-04-12T17:47:01.091Z,15852.6
2018-04-12T17:48:01.300Z,15509.1
2018-04-12T17:49:01.095Z,15181.5
2018-04-12T17:50:01.098Z,14856.8
2018-04-12T17:51:01.097Z,14524.3
2018-04-12T17:52:01.102Z,14177.6
2018-04-12T17:53:01.277Z,13826.0
2018-04-12T17:54:01.069Z,13458.3
2018-04-12T17:55:01.070Z,13078.4
2018-04-12T17:56:01.101Z,12692.3
2018-04-12T17:57:01.099Z,12306.0
2018-04-12T17:58:01.245Z,11924.7
2018-04-12T17:59:01.071Z,11551.3
2018-04-12T18:00:01.102Z,11189.7
2018-04-12T18:01:01.071Z,10841.7
2018-04-12T18:02:01.068Z,10509.2
2018-04-12T18:03:01.244Z,10191.1
2018-04-12T18:04:01.068Z,9884.3
2018-04-12T18:05:01.105Z,9584.5
2018-04-12T18:06:01.071Z,9285.7
2018-04-12T18:07:01.066Z,8979.9
2018-04-12T18:08:01.299Z,8660.6
2018-04-12T18:09:01.120Z,8325.4
2018-04-12T18:10:01.100Z,7973.8
2018-04-12T18:11:01.067Z,7606.5
2018-04-12T18:12:01.101Z,7221.7
2018-04-12T18:13:01.291Z,6821.9
2018-04-12T18:14:01.065Z,6409.5
2018-04-12T18:15:01.071Z,5988.7
2018-04-12T18:16:01.069Z,5565.6
2018-04-12T18:17:01.101Z,5143.8
2018-04-12T18:18:01.245Z,4725.9
2018-04-12T18:19:01.130Z,4316.0
2018-04-12T18:20:01.127Z,3920.3
2018-04-12T18:21:01.074Z,3546.0
2018-04-12T18:22:01.115Z,3201.1
2018-04-12T18:23:01.255Z,2890.0
2018-04-12T18:24:01.139Z,2613.2
2018-04-12T18:25:01.136Z,2367.0
2018-04-12T18:26:01.077Z,2146.7
2018-04-12T18:27:01.112Z,1948.1
2018-04-12T18:28:01.256Z,1767.7
2018-04-12T18:29:01.141Z,1603.2
2018-04-12T18:30:01.106Z,1451.5
2018-04-12T18:31:01.089Z,1310.1
2018-04-12T18:32:01.078Z,1178.7
2018-04-12T18:33:01.260Z,1058.1
2018-04-12T18:34:01.119Z,948.8
2018-04-12T18:35:01.099Z,850.5
2018-04-12T18:37:01.059Z,758.4
2018-04-12T18:38:01.295Z,673.9
2018-04-12T18:39:01.085Z,596.1
2018-04-12T18:40:01.092Z,524.3
2018-04-12T18:41:01.055Z,458.5
2018-04-12T18:42:01.063Z,398.3
2018-04-12T18:43:01.284Z,343.8
2018-04-12T18:44:01.143Z,294.9
2018-04-12T18:45:01.092Z,251.3
2018-04-12T18:46:01.097Z,213.1
2018-04-12T18:47:01.060Z,179.7
2018-04-12T18:48:01.242Z,150.7
2018-04-12T18:49:01.089Z,125.5
2018-04-12T18:50:01.092Z,104.0
2018-04-12T18:51:01.065Z,85.7
2018-04-12T18:52:01.065Z,72.7
2018-04-12T18:53:01.217Z,61.8
2018-04-12T18:54:01.099Z,52.6
2018-04-12T18:55:01.122Z,44.9
2018-04-12T18:56:01.131Z,38.5
2018-04-12T18:57:01.070Z,33.1
2018-04-12T18:58:01.247Z,28.5
2018-04-12T18:59:01.069Z,24.4
2018-04-12T19:00:01.101Z,20.9
2018-04-12T19:01:01.094Z,17.9
2018-04-12T19:02:01.099Z,15.3
2018-04-12T19:03:01.242Z,13.1
2018-04-12T19:04:01.063Z,11.2
2018-04-12T19:05:01.101Z,9.5
2018-04-12T19:06:01.125Z,7.9
2018-04-12T19:07:01.101Z,6.7
2018-04-12T19:08:01.240Z,5.6
2018-04-12T19:09:01.099Z,4.7
2018-04-12T19:10:01.066Z,3.9
2018-04-12T19:11:01.122Z,3.3
2018-04-12T19:12:01.069Z,2.7
2018-04-12T19:13:01.251Z,2.3
2018-04-12T19:14:01.070Z,1.9
2018-04-12T19:15:01.066Z,1.5
2018-04-12T19:16:01.129Z,1.3
2018-04-12T19:17:01.109Z,1.0
2018-04-12T19:18:01.245Z,0.8
2018-04-12T19:19:01.104Z,0.7
2018-04-12T19:20:01.108Z,0.5
2018-04-12T19:22:01.074Z,0.4
2018-04-12T19:23:01.298Z,0.3
2018-04-12T19:25:01.109Z,0.2
2018-04-12T19:26:01.106Z,0.1
